Terminal Aerodrome Forecast
Issued by NWS Louisville, KY

Home | Current Version | Previous Version | Text Only | Print | Product List | Glossary On
Versions: 1 2 3 4 5 6 7 8 9 10 11 12 13 14
381
FTUS43 KLMK 090320 AAA
TAFBWG
TAF AMD
KBWG 090320Z 0903/0924 32006KT P6SM BKN035
     FM090530 30005KT P6SM BKN024
     FM091500 31006KT P6SM SCT030=

USA.gov is the U.S. government's official web portal to all federal, state and local government web resources and services.